Time;durP1;ratioP1;P1;durP2;ratioP2;P2;SDS_P1;SDS_P2;PMS_P1;PMS_P2;Temp;Humidity;BMP_temperature;BMP_pressure;BME280_temperature;BME280_humidity;BME280_pressure;Samples;Min_cycle;Max_cycle;Signal;HPM_P1;HPM_P2
2022/12/05 00:01:59;;;;;;;286.80;75.40;;;2.40;99.90;;;;;;5204832;28;20241;-50
2022/12/05 00:04:29;;;;;;;288.13;74.30;;;2.40;99.90;;;;;;5186997;28;20194;-47
2022/12/05 00:07:00;;;;;;;308.13;75.73;;;2.40;99.90;;;;;;5209699;28;20198;-48
2022/12/05 00:09:31;;;;;;;342.30;79.00;;;2.40;99.90;;;;;;5208745;28;20180;-49
2022/12/05 00:12:01;;;;;;;303.23;71.60;;;2.50;99.90;;;;;;5208645;28;20647;-47
2022/12/05 00:14:32;;;;;;;313.13;78.97;;;2.40;99.90;;;;;;5207746;28;20207;-48
2022/12/05 00:17:03;;;;;;;301.17;75.27;;;2.40;99.90;;;;;;5209390;28;20237;-49
2022/12/05 00:19:33;;;;;;;288.50;74.50;;;2.50;99.90;;;;;;5209372;28;20228;-48
2022/12/05 00:22:04;;;;;;;305.93;75.43;;;2.40;99.90;;;;;;5191547;28;20611;-48
2022/12/05 00:24:34;;;;;;;301.83;71.83;;;2.40;99.90;;;;;;5204833;28;20243;-47
2022/12/05 00:27:05;;;;;;;287.27;75.40;;;2.40;99.90;;;;;;5228762;28;20233;-47
2022/12/05 00:29:36;;;;;;;290.13;76.50;;;2.50;99.90;;;;;;5215339;28;20211;-47
2022/12/05 00:32:06;;;;;;;307.57;75.40;;;2.50;99.90;;;;;;5222362;28;20194;-48
2022/12/05 00:34:37;;;;;;;306.17;73.20;;;2.40;99.90;;;;;;5202546;28;20223;-47
2022/12/05 00:37:08;;;;;;;303.40;79.63;;;2.40;99.90;;;;;;5229103;28;20534;-47
2022/12/05 00:39:38;;;;;;;322.83;76.47;;;2.40;99.90;;;;;;5227442;28;20189;-47
2022/12/05 00:42:09;;;;;;;265.13;72.43;;;2.50;99.90;;;;;;5227564;28;20174;-48
2022/12/05 00:44:40;;;;;;;326.13;75.97;;;2.50;99.90;;;;;;5215422;28;20204;-47
2022/12/05 00:47:10;;;;;;;320.30;76.40;;;2.40;99.90;;;;;;5197491;28;20666;-47
2022/12/05 00:49:41;;;;;;;293.33;74.27;;;2.40;99.90;;;;;;5226397;28;20179;-48
2022/12/05 00:52:12;;;;;;;308.40;78.60;;;2.50;99.90;;;;;;5211966;28;20270;-47
2022/12/05 00:54:42;;;;;;;305.67;77.33;;;2.50;99.90;;;;;;5220616;28;20212;-50
2022/12/05 00:57:13;;;;;;;329.30;76.10;;;2.50;99.90;;;;;;5228427;28;20709;-47
2022/12/05 00:59:44;;;;;;;326.30;78.33;;;2.50;99.90;;;;;;5229539;28;20241;-46
2022/12/05 01:02:14;;;;;;;327.70;80.87;;;2.50;99.90;;;;;;5201789;28;20190;-48
2022/12/05 01:04:45;;;;;;;322.17;77.37;;;2.50;99.90;;;;;;5213420;28;20753;-46
2022/12/05 01:07:16;;;;;;;370.23;88.50;;;2.50;99.90;;;;;;5195028;28;20429;-47
2022/12/05 01:09:46;;;;;;;335.57;80.40;;;2.50;99.90;;;;;;5225261;28;20245;-47
2022/12/05 01:12:17;;;;;;;340.27;83.27;;;2.50;99.90;;;;;;5210386;28;20297;-48
2022/12/05 01:14:47;;;;;;;321.17;80.20;;;2.50;99.90;;;;;;5224610;28;20230;-48
2022/12/05 01:17:18;;;;;;;348.83;77.57;;;2.50;99.90;;;;;;5216469;28;20187;-48
2022/12/05 01:19:49;;;;;;;310.60;79.70;;;2.40;99.90;;;;;;5216745;28;20203;-48
2022/12/05 01:22:19;;;;;;;308.70;78.30;;;2.50;99.90;;;;;;5227300;28;20182;-49
2022/12/05 01:24:50;;;;;;;312.50;78.03;;;2.50;99.90;;;;;;5210487;28;20215;-48
2022/12/05 01:27:20;;;;;;;256.17;73.20;;;2.50;99.90;;;;;;5217304;28;20675;-47
2022/12/05 01:29:51;;;;;;;322.83;80.50;;;2.50;99.90;;;;;;5219560;28;20210;-48
2022/12/05 01:32:22;;;;;;;309.43;75.80;;;2.50;99.90;;;;;;5220868;28;20274;-48
2022/12/05 01:34:53;;;;;;;307.47;79.87;;;2.50;99.90;;;;;;5226829;28;20211;-48
2022/12/05 01:37:24;;;;;;;305.53;78.77;;;2.50;99.90;;;;;;5216803;28;20211;-46
2022/12/05 01:39:55;;;;;;;296.97;78.33;;;2.50;99.90;;;;;;5208980;28;20465;-48
2022/12/05 01:42:25;;;;;;;308.07;80.10;;;2.50;99.90;;;;;;5228069;28;20532;-48
2022/12/05 01:45:04;;;;;;;361.63;82.33;;;2.50;99.90;;;;;;5224898;28;20569;-48
2022/12/05 01:47:36;;;;;;;321.40;80.73;;;2.50;99.90;;;;;;5218698;28;20206;-48
2022/12/05 01:50:07;;;;;;;331.07;83.13;;;2.50;99.90;;;;;;5194423;28;20429;-47
2022/12/05 01:52:39;;;;;;;329.80;80.60;;;2.50;99.90;;;;;;5208786;28;20948;-48
2022/12/05 01:55:13;;;;;;;302.67;74.77;;;2.50;99.90;;;;;;5201727;28;21020;-49
2022/12/05 01:57:46;;;;;;;304.40;75.67;;;2.50;99.90;;;;;;5205314;28;20429;-47
2022/12/05 02:00:19;;;;;;;344.00;78.87;;;2.50;99.90;;;;;;5203809;28;20800;-48
2022/12/05 02:02:57;;;;;;;334.27;79.07;;;2.50;99.90;;;;;;5214670;28;20434;-48
2022/12/05 02:05:36;;;;;;;362.37;84.70;;;2.50;99.90;;;;;;5211556;28;20519;-48
2022/12/05 02:08:09;;;;;;;318.97;79.60;;;2.50;99.90;;;;;;5223044;28;20444;-49
2022/12/05 02:10:44;;;;;;;347.37;81.43;;;2.50;99.90;;;;;;5212500;28;20434;-48
2022/12/05 02:13:15;;;;;;;328.07;83.27;;;2.50;99.90;;;;;;5200379;28;20429;-46
2022/12/05 02:15:54;;;;;;;331.80;83.63;;;2.50;99.90;;;;;;5213378;28;21014;-47
2022/12/05 02:18:49;;;;;;;335.30;80.00;;;2.50;99.90;;;;;;5202291;28;20217;-48
2022/12/05 02:21:20;;;;;;;370.40;84.00;;;2.50;99.90;;;;;;5208531;28;21060;-47
2022/12/05 02:24:02;;;;;;;338.70;84.17;;;2.50;99.90;;;;;;5224076;28;20516;-46
2022/12/05 02:27:08;;;;;;;348.10;83.77;;;2.50;99.90;;;;;;5225504;22;20230;-46
2022/12/05 02:29:57;;;;;;;367.20;86.03;;;2.50;99.90;;;;;;5216110;28;20444;-46
2022/12/05 02:32:42;;;;;;;378.17;85.57;;;2.50;99.90;;;;;;5224472;28;20433;-48
2022/12/05 02:35:40;;;;;;;347.60;79.97;;;2.50;99.90;;;;;;5233504;28;21003;-47
2022/12/05 02:38:25;;;;;;;371.57;78.90;;;2.50;99.90;;;;;;5243521;28;20441;-48
2022/12/05 02:41:18;;;;;;;323.83;80.60;;;2.50;99.90;;;;;;5244914;28;20440;-47
2022/12/05 02:44:13;;;;;;;338.63;80.87;;;2.50;99.90;;;;;;5217218;28;20435;-47
2022/12/05 02:46:47;;;;;;;341.13;79.63;;;2.50;99.90;;;;;;5226519;28;20437;-48
2022/12/05 02:49:25;;;;;;;374.80;84.90;;;2.50;99.90;;;;;;5228293;28;20416;-46
2022/12/05 02:51:58;;;;;;;364.20;80.97;;;2.50;99.90;;;;;;5229159;28;20440;-46
2022/12/05 02:54:34;;;;;;;382.43;83.73;;;2.50;99.90;;;;;;5237610;28;20896;-46
2022/12/05 02:57:06;;;;;;;324.40;80.23;;;2.50;99.90;;;;;;5244988;28;20451;-47
2022/12/05 02:59:37;;;;;;;335.50;79.30;;;2.60;99.90;;;;;;5211873;28;20523;-47
2022/12/05 03:02:21;;;;;;;343.77;83.00;;;2.60;99.90;;;;;;5224943;28;20429;-46
2022/12/05 03:04:52;;;;;;;306.20;77.40;;;2.50;99.90;;;;;;5236148;28;20444;-46
2022/12/05 03:07:27;;;;;;;310.03;79.47;;;2.50;99.90;;;;;;5244094;28;20417;-46
2022/12/05 03:10:03;;;;;;;325.23;73.07;;;2.50;99.90;;;;;;5245627;28;20436;-48
2022/12/05 03:12:41;;;;;;;306.60;76.20;;;2.50;99.90;;;;;;5227305;28;20795;-48
2022/12/05 03:15:25;;;;;;;293.50;70.87;;;2.50;99.90;;;;;;5228388;28;20501;-48
2022/12/05 03:18:10;;;;;;;371.43;83.87;;;2.50;99.90;;;;;;5237201;28;20452;-47
2022/12/05 03:20:47;;;;;;;336.47;80.70;;;2.50;99.90;;;;;;5227529;28;20585;-48
2022/12/05 03:23:29;;;;;;;347.60;77.93;;;2.50;99.90;;;;;;5243806;28;20525;-47
2022/12/05 03:26:13;;;;;;;311.07;74.10;;;2.50;99.90;;;;;;5222297;28;20527;-47
2022/12/05 03:28:46;;;;;;;311.37;71.97;;;2.50;99.90;;;;;;5228396;28;21006;-48
2022/12/05 03:31:24;;;;;;;286.63;72.73;;;2.50;99.90;;;;;;5229313;28;20826;-52
2022/12/05 03:33:57;;;;;;;359.80;79.20;;;2.50;99.90;;;;;;5236495;28;20544;-46
2022/12/05 03:36:36;;;;;;;324.77;75.80;;;2.50;99.90;;;;;;5241512;28;20479;-46
2022/12/05 03:39:23;;;;;;;303.33;74.13;;;2.50;99.90;;;;;;5238854;28;20460;-47
2022/12/05 03:41:59;;;;;;;323.77;71.80;;;2.50;99.90;;;;;;5240833;28;20441;-48
2022/12/05 03:44:33;;;;;;;280.87;66.90;;;2.50;99.90;;;;;;5250543;28;20435;-48
2022/12/05 03:47:33;;;;;;;273.30;69.30;;;2.50;99.90;;;;;;5231833;28;20443;-48
2022/12/05 03:50:26;;;;;;;333.93;72.77;;;2.50;99.90;;;;;;5200866;28;20424;-47
2022/12/05 03:53:06;;;;;;;272.47;67.80;;;2.50;99.90;;;;;;5214471;28;20527;-48
2022/12/05 03:55:40;;;;;;;335.73;77.30;;;2.50;99.90;;;;;;5234062;28;20479;-47
2022/12/05 03:58:18;;;;;;;263.10;69.70;;;2.50;99.90;;;;;;5212870;28;20433;-48
2022/12/05 04:00:52;;;;;;;243.23;64.23;;;2.50;99.90;;;;;;5232059;28;20523;-48
2022/12/05 04:03:37;;;;;;;303.37;69.40;;;2.50;99.90;;;;;;5250155;28;20474;-49
2022/12/05 04:06:16;;;;;;;330.17;72.13;;;2.40;99.90;;;;;;5239880;28;20448;-51
2022/12/05 04:08:53;;;;;;;310.70;72.83;;;2.40;99.90;;;;;;5231451;28;20443;-49
2022/12/05 04:11:30;;;;;;;248.70;68.57;;;2.50;99.90;;;;;;5220980;28;20428;-50
2022/12/05 04:14:08;;;;;;;309.60;69.77;;;2.50;99.90;;;;;;5237628;28;20455;-49
2022/12/05 04:17:05;;;;;;;288.93;70.80;;;2.50;99.90;;;;;;5249186;28;20455;-49
2022/12/05 04:22:31;;;;;;;313.90;72.07;;;2.50;99.90;;;;;;5250089;28;20418;-49
2022/12/05 04:28:13;;;;;;;263.33;66.43;;;2.50;99.90;;;;;;5234356;28;20447;-50
2022/12/05 04:31:06;;;;;;;288.53;68.00;;;2.50;99.90;;;;;;5248179;28;20531;-50
2022/12/05 04:33:43;;;;;;;270.10;68.20;;;2.50;99.90;;;;;;5241043;28;20436;-49
2022/12/05 04:36:37;;;;;;;324.97;75.57;;;2.50;99.90;;;;;;5230869;28;20563;-49
2022/12/05 04:39:28;;;;;;;299.83;71.40;;;2.50;99.90;;;;;;5234421;28;20967;-47
2022/12/05 04:42:09;;;;;;;287.33;69.10;;;2.50;99.90;;;;;;5231233;28;20436;-49
2022/12/05 04:44:44;;;;;;;333.60;75.43;;;2.40;99.90;;;;;;5246079;28;20433;-51
2022/12/05 04:47:18;;;;;;;278.90;67.60;;;2.50;99.90;;;;;;5243091;28;20910;-48
2022/12/05 04:49:51;;;;;;;331.70;70.90;;;2.40;99.90;;;;;;5247660;28;20416;-49
2022/12/05 04:52:22;;;;;;;294.90;69.77;;;2.40;99.90;;;;;;5230502;28;20590;-49
2022/12/05 04:55:24;;;;;;;312.60;67.70;;;2.40;99.90;;;;;;5230689;28;20827;-49
2022/12/05 04:58:06;;;;;;;306.60;71.27;;;2.50;99.90;;;;;;5233474;28;20955;-49
2022/12/05 05:00:51;;;;;;;267.03;67.40;;;2.40;99.90;;;;;;5240771;28;20936;-52
2022/12/05 05:03:33;;;;;;;256.40;65.07;;;2.40;99.90;;;;;;5219629;28;20440;-48
2022/12/05 05:06:04;;;;;;;312.80;71.33;;;2.40;99.90;;;;;;5248310;28;20467;-47
2022/12/05 05:08:35;;;;;;;256.70;64.63;;;2.40;99.90;;;;;;5229819;28;20532;-47
2022/12/05 05:11:11;;;;;;;267.63;65.70;;;2.40;99.90;;;;;;5230725;28;21003;-48
2022/12/05 05:13:42;;;;;;;264.87;65.73;;;2.40;99.90;;;;;;5245369;28;20198;-49
2022/12/05 05:16:18;;;;;;;280.87;65.00;;;2.40;99.90;;;;;;5236359;28;20898;-50
2022/12/05 05:18:49;;;;;;;307.43;70.47;;;2.40;99.90;;;;;;5238456;28;20182;-50
2022/12/05 05:21:25;;;;;;;334.97;71.40;;;2.40;99.90;;;;;;5226672;28;20457;-49
2022/12/05 05:23:57;;;;;;;274.00;64.10;;;2.40;99.90;;;;;;5241909;28;20440;-48
2022/12/05 05:26:29;;;;;;;230.63;58.50;;;2.40;99.90;;;;;;5244873;28;20911;-51
2022/12/05 05:29:00;;;;;;;184.47;54.37;;;2.40;99.90;;;;;;5250531;28;20424;-49
2022/12/05 05:31:30;;;;;;;205.20;58.63;;;2.40;99.90;;;;;;5230301;28;20437;-48
2022/12/05 05:34:01;;;;;;;227.37;54.73;;;2.40;99.90;;;;;;5241794;28;20217;-47
2022/12/05 05:36:32;;;;;;;196.87;52.70;;;2.40;99.90;;;;;;5227777;28;20551;-48
2022/12/05 05:39:04;;;;;;;217.20;58.40;;;2.40;99.90;;;;;;5230668;28;20695;-49
2022/12/05 05:41:35;;;;;;;169.13;48.33;;;2.40;99.90;;;;;;5234613;28;20248;-48
2022/12/05 05:44:06;;;;;;;196.53;57.20;;;2.40;99.90;;;;;;5234171;28;20514;-49
2022/12/05 05:46:37;;;;;;;175.37;50.57;;;2.40;99.90;;;;;;5241195;28;20498;-48
2022/12/05 05:49:09;;;;;;;192.60;54.53;;;2.40;99.90;;;;;;5222105;28;20653;-49
2022/12/05 05:51:39;;;;;;;167.03;49.10;;;2.50;99.90;;;;;;5225049;28;20429;-48
2022/12/05 05:54:10;;;;;;;167.90;48.60;;;2.40;99.90;;;;;;5246169;28;20461;-48
2022/12/05 05:56:40;;;;;;;232.27;53.10;;;2.40;99.90;;;;;;5227157;28;20191;-49
2022/12/05 05:59:11;;;;;;;231.37;55.33;;;2.40;99.90;;;;;;5231039;28;20170;-49
2022/12/05 06:01:42;;;;;;;150.33;44.53;;;2.40;99.90;;;;;;5237495;28;20182;-50
2022/12/05 06:04:12;;;;;;;191.83;49.13;;;2.40;99.90;;;;;;5224373;28;20190;-49
2022/12/05 06:06:43;;;;;;;154.67;44.83;;;2.50;99.90;;;;;;5228509;28;20216;-49
2022/12/05 06:09:13;;;;;;;180.93;47.40;;;2.40;99.90;;;;;;5244497;28;20185;-49
2022/12/05 06:11:44;;;;;;;178.40;46.17;;;2.40;99.90;;;;;;5225133;28;20601;-49
2022/12/05 06:14:14;;;;;;;204.93;52.80;;;2.40;99.90;;;;;;5251182;28;20198;-48
2022/12/05 06:16:45;;;;;;;134.47;41.07;;;2.40;99.90;;;;;;5235100;28;20215;-48
2022/12/05 06:19:16;;;;;;;210.30;52.27;;;2.40;99.90;;;;;;5223664;28;20256;-49
2022/12/05 06:21:49;;;;;;;169.30;45.67;;;2.40;99.90;;;;;;5211414;28;20178;-48
2022/12/05 06:24:19;;;;;;;145.03;46.00;;;2.40;99.90;;;;;;5204561;28;20190;-46
2022/12/05 06:26:50;;;;;;;148.07;41.77;;;2.40;99.90;;;;;;5218881;28;20480;-50
2022/12/05 06:29:20;;;;;;;166.27;44.87;;;2.50;99.90;;;;;;5224549;28;20198;-51
2022/12/05 06:31:51;;;;;;;147.40;45.70;;;2.50;99.90;;;;;;5243710;28;20194;-50
2022/12/05 06:34:22;;;;;;;146.73;43.47;;;2.50;99.90;;;;;;5240860;28;20279;-48
2022/12/05 06:36:52;;;;;;;132.77;43.73;;;2.50;99.90;;;;;;5228401;28;20218;-50
2022/12/05 06:39:23;;;;;;;168.93;44.10;;;2.50;99.90;;;;;;5223053;28;20274;-49
2022/12/05 06:41:53;;;;;;;132.27;38.97;;;2.50;99.90;;;;;;5214005;28;20191;-50
2022/12/05 06:44:25;;;;;;;172.70;46.97;;;2.40;99.90;;;;;;5235058;28;20650;-50
2022/12/05 06:46:56;;;;;;;161.30;43.90;;;2.50;99.90;;;;;;5233303;28;20336;-49
2022/12/05 06:49:31;;;;;;;161.67;47.00;;;2.40;99.90;;;;;;5218585;28;20428;-48
2022/12/05 06:52:01;;;;;;;194.30;50.53;;;2.60;99.90;;;;;;5233370;28;20469;-49
2022/12/05 06:54:32;;;;;;;174.83;47.00;;;2.50;99.90;;;;;;5214189;28;20469;-49
2022/12/05 06:57:03;;;;;;;191.20;50.57;;;2.50;99.90;;;;;;5240071;28;20654;-47
2022/12/05 06:59:33;;;;;;;151.40;43.47;;;2.50;99.90;;;;;;5227252;28;20178;-48
2022/12/05 07:02:06;;;;;;;180.93;49.60;;;2.50;99.90;;;;;;5224310;28;20251;-48
2022/12/05 07:04:37;;;;;;;155.27;46.23;;;2.50;99.90;;;;;;5241360;28;20265;-48
2022/12/05 07:07:08;;;;;;;155.50;47.93;;;2.50;99.90;;;;;;5222571;28;20582;-48
2022/12/05 07:09:44;;;;;;;175.70;46.63;;;2.50;99.90;;;;;;5221242;28;20219;-49
2022/12/05 07:12:17;;;;;;;175.17;49.20;;;2.50;99.90;;;;;;5219754;28;20266;-48
2022/12/05 07:14:47;;;;;;;185.13;50.30;;;2.50;99.90;;;;;;5225246;28;20500;-48
2022/12/05 07:17:19;;;;;;;153.07;45.70;;;2.60;99.90;;;;;;5245444;28;20413;-47
2022/12/05 07:19:51;;;;;;;172.67;47.40;;;2.50;99.90;;;;;;5242087;28;20320;-48
2022/12/05 07:22:22;;;;;;;165.77;46.60;;;2.60;99.90;;;;;;5240162;28;20948;-52
2022/12/05 07:24:53;;;;;;;216.27;55.13;;;2.50;99.90;;;;;;5221333;28;20517;-50
2022/12/05 07:27:24;;;;;;;207.93;53.53;;;2.60;99.90;;;;;;5236404;28;20463;-47
2022/12/05 07:29:55;;;;;;;149.03;45.50;;;2.60;99.90;;;;;;5214014;28;20594;-47
2022/12/05 07:32:25;;;;;;;179.07;47.93;;;2.50;99.90;;;;;;5235471;28;20189;-49
2022/12/05 07:34:56;;;;;;;190.83;48.50;;;2.50;99.90;;;;;;5244449;28;20845;-48
2022/12/05 07:37:27;;;;;;;167.63;45.43;;;2.60;99.90;;;;;;5235700;28;20190;-47
2022/12/05 07:39:57;;;;;;;167.50;46.40;;;2.60;99.90;;;;;;5240568;28;20744;-49
2022/12/05 07:42:28;;;;;;;153.97;45.80;;;2.60;99.90;;;;;;5227076;28;20217;-48
2022/12/05 07:44:59;;;;;;;173.63;49.27;;;2.60;99.90;;;;;;5223485;28;20195;-46
2022/12/05 07:47:30;;;;;;;171.50;48.70;;;2.60;99.90;;;;;;5229065;28;20201;-48
2022/12/05 07:50:00;;;;;;;240.27;53.20;;;2.60;99.90;;;;;;5238831;28;20183;-48
2022/12/05 07:52:31;;;;;;;193.73;50.93;;;2.60;99.90;;;;;;5225728;28;20512;-48
2022/12/05 07:55:02;;;;;;;175.57;47.10;;;2.60;99.90;;;;;;5226561;28;20710;-48
2022/12/05 07:57:32;;;;;;;221.87;53.07;;;2.60;99.90;;;;;;5226178;28;20171;-48
2022/12/05 08:00:04;;;;;;;141.47;43.80;;;2.60;99.90;;;;;;5242233;28;20214;-51
2022/12/05 08:02:34;;;;;;;165.03;46.20;;;2.60;99.90;;;;;;5226462;28;20186;-51
2022/12/05 08:05:05;;;;;;;147.73;45.20;;;2.60;99.90;;;;;;5224221;28;20845;-49
2022/12/05 08:07:36;;;;;;;179.33;46.93;;;2.60;99.90;;;;;;5219347;28;20638;-47
2022/12/05 08:10:07;;;;;;;147.30;43.87;;;2.60;99.90;;;;;;5243017;28;20642;-48
2022/12/05 08:12:38;;;;;;;176.77;48.20;;;2.60;99.90;;;;;;5240127;28;20194;-46
2022/12/05 08:15:11;;;;;;;137.07;44.37;;;2.60;99.90;;;;;;5226591;28;20464;-48
2022/12/05 08:17:42;;;;;;;178.47;49.33;;;2.60;99.90;;;;;;5225929;28;20186;-49
2022/12/05 08:20:13;;;;;;;175.97;44.83;;;2.50;99.90;;;;;;5239365;28;20515;-48
2022/12/05 08:22:43;;;;;;;139.10;42.73;;;2.60;99.90;;;;;;5233963;28;20179;-48
2022/12/05 08:25:14;;;;;;;177.60;46.27;;;2.60;99.90;;;;;;5259651;23;21091;-51
2022/12/05 08:27:45;;;;;;;181.87;47.17;;;2.60;99.90;;;;;;5228282;28;20170;-49
2022/12/05 08:30:16;;;;;;;170.80;46.20;;;2.60;99.90;;;;;;5240539;28;20265;-50
2022/12/05 08:32:47;;;;;;;195.10;50.10;;;2.60;99.90;;;;;;5215126;28;20178;-51
2022/12/05 08:35:18;;;;;;;188.00;52.50;;;2.60;99.90;;;;;;5203698;28;20465;-50
2022/12/05 08:37:48;;;;;;;159.77;48.20;;;2.60;99.90;;;;;;5223729;28;20655;-49
2022/12/05 08:40:20;;;;;;;154.90;48.17;;;2.60;99.90;;;;;;5237713;28;20931;-51
2022/12/05 08:42:51;;;;;;;200.07;50.03;;;2.70;99.90;;;;;;5236793;28;20236;-52
2022/12/05 08:45:21;;;;;;;189.50;53.30;;;2.70;99.90;;;;;;5216767;28;21368;-50
2022/12/05 08:47:52;;;;;;;154.33;46.97;;;2.70;99.90;;;;;;5219791;28;20448;-51
2022/12/05 08:50:23;;;;;;;155.03;47.50;;;2.70;99.90;;;;;;5236651;28;20190;-51
2022/12/05 08:52:54;;;;;;;174.70;47.10;;;2.60;99.90;;;;;;5219366;28;20495;-49
2022/12/05 08:55:25;;;;;;;176.27;49.10;;;2.60;99.90;;;;;;5240677;28;20225;-51
2022/12/05 08:57:57;;;;;;;162.87;48.50;;;2.60;99.90;;;;;;5207731;28;20436;-49
2022/12/05 09:00:27;;;;;;;180.53;49.80;;;2.60;99.90;;;;;;5245218;28;20445;-51
2022/12/05 09:02:58;;;;;;;186.57;50.63;;;2.60;99.90;;;;;;5244841;28;20436;-51
2022/12/05 09:05:29;;;;;;;175.83;46.00;;;2.60;99.90;;;;;;5232633;28;20210;-51
2022/12/05 09:08:03;;;;;;;220.60;55.20;;;2.70;99.90;;;;;;5249835;28;20295;-51
2022/12/05 09:10:34;;;;;;;168.57;46.50;;;2.70;99.90;;;;;;5221410;28;20535;-50
2022/12/05 09:13:04;;;;;;;152.73;45.90;;;2.70;99.90;;;;;;5221684;28;20476;-52
2022/12/05 09:15:37;;;;;;;168.20;46.73;;;2.70;99.90;;;;;;5224863;28;20214;-51
2022/12/05 09:18:09;;;;;;;132.70;43.50;;;2.70;99.90;;;;;;5239891;28;20611;-50
2022/12/05 09:20:40;;;;;;;148.87;42.27;;;2.60;99.90;;;;;;5220386;28;20437;-49
2022/12/05 09:23:14;;;;;;;143.57;42.70;;;2.60;99.90;;;;;;5235709;28;20425;-52
2022/12/05 09:25:53;;;;;;;142.00;44.23;;;2.60;99.90;;;;;;5217613;28;20964;-52
2022/12/05 09:28:24;;;;;;;202.97;49.80;;;2.60;99.90;;;;;;5236844;28;20451;-49
2022/12/05 09:31:00;;;;;;;151.27;46.00;;;2.60;99.90;;;;;;5221921;28;20432;-51
2022/12/05 09:33:33;;;;;;;129.63;42.40;;;2.60;99.90;;;;;;5240201;28;20182;-51
2022/12/05 09:36:06;;;;;;;151.17;45.90;;;2.60;99.90;;;;;;5241725;28;20544;-49
2022/12/05 09:38:41;;;;;;;151.60;44.03;;;2.60;99.90;;;;;;5243484;28;20440;-50
2022/12/05 09:44:56;;;;;;;182.87;47.83;;;2.60;99.90;;;;;;5242405;28;21005;-50
2022/12/05 09:47:27;;;;;;;153.77;46.10;;;2.60;99.90;;;;;;5240827;28;20448;-50
2022/12/05 09:50:21;;;;;;;156.10;45.43;;;2.60;99.90;;;;;;5241969;28;20437;-52
2022/12/05 09:53:19;;;;;;;185.77;49.70;;;2.60;99.90;;;;;;5220737;28;20451;-55
2022/12/05 09:56:05;;;;;;;222.83;50.87;;;2.60;99.90;;;;;;5223047;28;20500;-53
2022/12/05 09:58:46;;;;;;;147.70;44.00;;;2.70;99.90;;;;;;5217374;28;20531;-50
2022/12/05 10:01:40;;;;;;;149.73;46.20;;;2.70;99.90;;;;;;5208771;28;20436;-52
2022/12/05 10:04:47;;;;;;;169.10;47.27;;;2.70;99.90;;;;;;5232242;28;20433;-51
2022/12/05 10:07:36;;;;;;;179.33;47.20;;;2.70;99.90;;;;;;5216602;28;21069;-48
2022/12/05 10:10:42;;;;;;;182.10;50.80;;;2.70;99.90;;;;;;5237638;28;20451;-51
2022/12/05 10:13:16;;;;;;;184.47;51.10;;;2.60;99.90;;;;;;5208505;28;20463;-51
2022/12/05 10:15:48;;;;;;;180.00;49.60;;;2.70;99.90;;;;;;5219156;28;20480;-50
2022/12/05 10:18:32;;;;;;;215.27;51.60;;;2.60;99.90;;;;;;5222712;28;21303;-53
2022/12/05 10:21:30;;;;;;;151.17;46.70;;;2.70;99.90;;;;;;5243751;28;20432;-50
2022/12/05 10:24:11;;;;;;;140.50;42.40;;;2.80;99.90;;;;;;5224238;28;20492;-51
2022/12/05 10:26:55;;;;;;;130.77;42.00;;;2.70;99.90;;;;;;5226565;28;20504;-51
2022/12/05 10:29:44;;;;;;;120.07;41.03;;;2.80;99.90;;;;;;5236653;28;20892;-50
2022/12/05 10:32:40;;;;;;;176.30;47.00;;;2.70;99.90;;;;;;5239782;28;20441;-50
2022/12/05 10:35:17;;;;;;;171.30;46.10;;;2.70;99.90;;;;;;5239920;28;20459;-54
2022/12/05 10:37:51;;;;;;;202.20;50.50;;;2.70;99.90;;;;;;5241416;28;20440;-49
2022/12/05 10:40:31;;;;;;;189.20;50.80;;;2.70;99.90;;;;;;5223282;28;20474;-51
2022/12/05 10:43:07;;;;;;;174.50;48.17;;;2.70;99.90;;;;;;5223682;28;20502;-50
2022/12/05 10:45:44;;;;;;;183.83;51.07;;;2.70;99.90;;;;;;5224294;28;20483;-51
2022/12/05 10:48:17;;;;;;;137.63;45.47;;;2.70;99.90;;;;;;5221093;28;20858;-48
2022/12/05 10:50:54;;;;;;;158.93;48.37;;;2.80;99.90;;;;;;5219206;28;20488;-50
2022/12/05 10:53:48;;;;;;;177.00;50.83;;;2.70;99.90;;;;;;5234610;28;20667;-51
2022/12/05 10:56:39;;;;;;;215.43;56.20;;;2.80;99.90;;;;;;5217086;28;20490;-51
2022/12/05 10:59:17;;;;;;;181.23;51.50;;;2.80;99.90;;;;;;5244560;28;20432;-50
2022/12/05 11:01:52;;;;;;;146.57;45.90;;;2.80;99.90;;;;;;5243028;28;20446;-50
2022/12/05 11:04:29;;;;;;;164.50;45.43;;;2.80;99.90;;;;;;5204780;28;20436;-52
2022/12/05 11:07:03;;;;;;;149.10;47.57;;;2.70;99.90;;;;;;5210878;28;20467;-53
2022/12/05 11:09:40;;;;;;;157.27;45.97;;;2.80;99.90;;;;;;5212049;28;20437;-53
2022/12/05 11:12:30;;;;;;;141.17;43.87;;;2.80;99.90;;;;;;5226378;28;20502;-53
2022/12/05 11:15:04;;;;;;;216.27;53.73;;;2.80;99.90;;;;;;5207643;28;20500;-53
2022/12/05 11:17:37;;;;;;;183.93;47.27;;;2.80;99.90;;;;;;5211641;28;20442;-53
2022/12/05 11:20:17;;;;;;;186.10;49.37;;;2.80;99.90;;;;;;5204780;28;20449;-49
2022/12/05 11:22:51;;;;;;;184.37;49.70;;;2.80;99.90;;;;;;5230334;28;20464;-51
2022/12/05 11:25:29;;;;;;;203.40;52.57;;;2.90;99.90;;;;;;5210755;28;20833;-51
2022/12/05 11:28:20;;;;;;;193.27;52.60;;;2.90;99.90;;;;;;5229888;28;20928;-53
2022/12/05 11:31:14;;;;;;;184.00;50.90;;;2.90;99.90;;;;;;5222794;28;20435;-51
2022/12/05 11:34:11;;;;;;;195.90;52.07;;;2.90;99.90;;;;;;5210410;28;20453;-51
2022/12/05 11:36:53;;;;;;;160.53;47.50;;;3.00;99.90;;;;;;5228688;28;20802;-51
2022/12/05 11:39:24;;;;;;;214.40;54.27;;;3.00;99.90;;;;;;5212083;28;20437;-49
2022/12/05 11:42:19;;;;;;;196.40;51.57;;;3.00;99.90;;;;;;5214892;28;20440;-50
2022/12/05 11:45:14;;;;;;;205.47;54.23;;;3.00;99.90;;;;;;5229868;28;20435;-50
2022/12/05 11:48:16;;;;;;;173.77;50.70;;;3.00;99.90;;;;;;5238471;28;20788;-51
2022/12/05 11:51:16;;;;;;;245.33;57.03;;;3.00;99.90;;;;;;5215921;28;20435;-52
2022/12/05 11:53:58;;;;;;;211.07;54.57;;;3.10;99.90;;;;;;5244007;28;20432;-52
2022/12/05 11:56:43;;;;;;;195.10;51.10;;;3.10;99.90;;;;;;5243880;28;20460;-51
2022/12/05 11:59:31;;;;;;;169.10;47.20;;;3.10;99.90;;;;;;5210180;28;20441;-52
2022/12/05 12:02:14;;;;;;;156.43;46.87;;;3.10;99.90;;;;;;5240963;28;20437;-52
2022/12/05 12:05:10;;;;;;;157.23;46.10;;;3.20;99.90;;;;;;5222385;28;20448;-52
2022/12/05 12:08:07;;;;;;;167.83;47.60;;;3.10;99.90;;;;;;5217511;28;20523;-52
2022/12/05 12:10:52;;;;;;;170.27;47.40;;;3.10;99.90;;;;;;5254170;28;20530;-51
2022/12/05 12:13:52;;;;;;;162.67;47.20;;;3.10;99.90;;;;;;5242099;28;20437;-52
2022/12/05 12:16:23;;;;;;;195.97;53.40;;;3.10;99.90;;;;;;5189334;28;20474;-51
2022/12/05 12:19:19;;;;;;;170.10;50.73;;;3.10;99.90;;;;;;5236571;28;20440;-52
2022/12/05 12:22:13;;;;;;;153.13;44.40;;;3.20;99.90;;;;;;5221445;28;20208;-52
2022/12/05 12:25:09;;;;;;;255.17;59.23;;;3.20;99.90;;;;;;5196878;28;20523;-51
2022/12/05 12:28:05;;;;;;;175.43;51.20;;;3.20;99.90;;;;;;5215012;28;20564;-52
2022/12/05 12:31:01;;;;;;;180.67;52.27;;;3.20;99.90;;;;;;5230492;28;20447;-51
2022/12/05 12:33:40;;;;;;;193.13;48.90;;;3.20;99.90;;;;;;5242764;28;20432;-52
2022/12/05 12:36:44;;;;;;;177.50;53.63;;;3.20;99.90;;;;;;5243304;28;20479;-51
2022/12/05 12:39:52;;;;;;;157.13;48.87;;;3.20;99.90;;;;;;5223995;28;20493;-53
2022/12/05 12:42:40;;;;;;;216.20;57.97;;;3.20;99.90;;;;;;5173997;28;20449;-52
2022/12/05 12:45:32;;;;;;;258.80;59.93;;;3.20;99.90;;;;;;5219213;28;20461;-50
2022/12/05 12:48:38;;;;;;;190.47;52.23;;;3.10;99.90;;;;;;5243168;28;20434;-50
2022/12/05 12:51:12;;;;;;;234.73;53.90;;;3.20;99.90;;;;;;5148262;28;20459;-51
2022/12/05 12:53:52;;;;;;;186.87;52.87;;;3.20;99.90;;;;;;5238084;28;20447;-50
2022/12/05 12:56:28;;;;;;;164.90;49.60;;;3.20;99.90;;;;;;5230729;28;20461;-52
2022/12/05 12:59:13;;;;;;;197.30;51.80;;;3.20;99.90;;;;;;5236753;28;20429;-50
2022/12/05 13:01:59;;;;;;;207.57;54.03;;;3.20;99.90;;;;;;5238742;28;20478;-52
2022/12/05 13:04:43;;;;;;;262.07;62.33;;;3.30;99.90;;;;;;5226111;28;20448;-51
2022/12/05 13:07:32;;;;;;;184.53;52.50;;;3.20;99.90;;;;;;5228963;28;20510;-51
2022/12/05 13:10:34;;;;;;;186.43;54.57;;;3.30;99.90;;;;;;5222960;28;20488;-51
2022/12/05 13:13:06;;;;;;;258.17;59.30;;;3.20;99.90;;;;;;5221638;28;21040;-50
2022/12/05 13:15:46;;;;;;;239.10;60.30;;;3.20;99.90;;;;;;5226976;28;20941;-51
2022/12/05 13:18:19;;;;;;;189.23;53.80;;;3.30;99.90;;;;;;5215241;28;20442;-50
2022/12/05 13:20:58;;;;;;;239.23;56.27;;;3.30;99.90;;;;;;5236677;28;20457;-53
2022/12/05 13:23:35;;;;;;;192.30;52.57;;;3.30;99.90;;;;;;5221948;28;21028;-52
2022/12/05 13:26:11;;;;;;;256.73;63.40;;;3.30;99.90;;;;;;5221738;28;20476;-51
2022/12/05 13:29:01;;;;;;;236.00;61.17;;;3.30;99.90;;;;;;5227940;28;20436;-51